Latest Weather Observations for Ben Nevis

IDV60801

Issued at 9:32 pm EDT Wednesday 7 December 2016 (issued every 30 minutes, with the page automatically refreshed every 10 minutes)

About weather observations | Map of weather stations | Latest weather observations for VIC | Other Formats
Station Details ID: 079101 Name: BEN NEVIS Lat: -37.23 Lon: 143.20 Height: 875.0 m
Data from the previous 72 hours. | See also: Recent months at Ben Nevis
Date/Time
EDT
Temp
°C
App
Temp
°C
Dew
Point
°C
Rel
Hum
%
Delta-T
°C
Wind Press
QNH
hPa
Press
MSL
hPa
Rain since
9am
mm
Dir  Spd
km/h
Gust
km/h
Spd
kts
Gust
kts
07/09:30pm 19.5 15.0 5.9 41 7.0 N 19 32 10 17 - - 0.0
07/09:00pm 18.9 14.3 5.4 41 6.9 N 19 32 10 17 - - 0.0
07/08:30pm 19.0 15.3 4.4 38 7.3 N 13 20 7 11 - - 0.0
07/08:00pm 19.8 16.2 3.1 33 8.2 N 11 19 6 10 - - 0.0
07/07:30pm 19.9 16.3 2.7 32 8.4 N 11 22 6 12 - - 0.0
07/07:00pm 20.5 16.4 2.3 30 8.9 N 13 26 7 14 - - 0.0
07/06:30pm 21.8 17.9 3.5 30 9.2 NNW 13 26 7 14 - - 0.0
07/06:00pm 22.9 19.8 3.4 28 9.8 NNE 9 19 5 10 - - 0.0
07/05:30pm 23.3 20.0 2.7 26 10.3 N 9 20 5 11 - - 0.0
07/05:00pm 23.3 19.5 1.6 24 10.6 NNW 11 24 6 13 - - 0.0
07/04:30pm 23.6 19.3 1.3 23 10.9 WNW 13 26 7 14 - - 0.0
07/04:00pm 23.4 19.0 0.5 22 11.0 NW 13 26 7 14 - - 0.0
07/03:30pm 23.4 18.6 0.5 22 11.0 WNW 15 32 8 17 - - 0.0
07/03:00pm 23.0 19.2 1.9 25 10.4 NNW 11 24 6 13 - - 0.0
07/02:30pm 22.2 18.2 0.7 24 10.3 NW 11 20 6 11 - - 0.0
07/02:00pm 21.4 18.0 1.7 27 9.5 N 9 20 5 11 - - 0.0
07/01:30pm 21.7 18.2 3.4 30 9.2 N 11 28 6 15 - - 0.0
07/01:00pm 20.2 16.1 2.5 31 8.6 N 13 24 7 13 - - 0.0
07/12:30pm 19.7 16.4 4.6 37 7.6 N 11 19 6 10 - - 0.0
07/12:00pm 18.4 15.5 4.6 40 6.9 NW 9 24 5 13 - - 0.0
07/11:30am 16.9 13.3 5.2 46 5.9 N 13 20 7 11 - - 0.0
07/11:00am 16.0 13.2 5.3 49 5.4 NNE 9 17 5 9 - - 0.0
07/10:30am 15.3 12.5 5.2 51 5.0 N 9 15 5 8 - - 0.0
07/10:00am 14.3 11.8 4.9 53 4.6 NNW 7 11 4 6 - - 0.0
07/09:30am 14.0 12.0 6.1 59 4.0 NW 6 9 3 5 - - 0.0
07/09:00am 13.0 10.5 4.9 58 3.9 W 7 9 4 5 - - 0.0
07/08:30am 12.5 10.9 4.7 59 3.8 WNW 2 7 1 4 - - 0.0
07/08:00am 11.4 9.0 5.1 65 3.0 SW 7 9 4 5 - - 0.0
07/07:30am 10.3 7.5 5.1 70 2.5 SW 9 11 5 6 - - 0.0
07/07:00am 9.2 6.6 4.4 72 2.2 SW 7 9 4 5 - - 0.0
07/06:30am 8.6 5.6 4.2 74 2.0 SW 9 13 5 7 - - 0.0
07/06:00am 8.6 5.2 4.0 73 2.1 SSW 11 15 6 8 - - 0.0
07/05:30am 8.5 4.7 3.9 73 2.1 SSW 13 19 7 10 - - 0.0
07/05:00am 8.5 4.7 3.9 73 2.1 SSW 13 19 7 10 - - 0.0
07/04:30am 8.6 4.8 4.0 73 2.1 SW 13 15 7 8 - - 0.0
07/04:00am 8.3 5.3 4.1 75 1.9 SW 9 11 5 6 - - 0.0
07/03:30am 8.6 5.2 4.0 73 2.1 SSW 11 13 6 7 - - 0.0
07/03:00am 8.9 5.5 3.9 71 2.3 SSW 11 15 6 8 - - 0.0
07/02:30am 9.4 5.7 4.4 71 2.3 SSW 13 15 7 8 - - 0.0
07/02:00am 9.4 5.7 4.4 71 2.3 SSW 13 19 7 10 - - 0.0
07/01:30am 9.6 5.9 4.4 70 2.4 SSW 13 19 7 10 - - 0.0
07/01:00am 9.6 6.3 4.4 70 2.4 SW 11 13 6 7 - - 0.0
07/12:30am 9.1 6.4 3.9 70 2.4 S 7 9 4 5 - - 0.0
07/12:00am 9.9 8.6 4.1 67 2.7 CALM 0 0 0 0 - - 0.0
 
Date/Time
EDT
Temp
°C
App
Temp
°C
Dew
Point
°C
Rel
Hum
%
Delta-T
°C
Wind Press
QNH
hPa
Press
MSL
hPa
Rain since
9am
mm
Dir  Spd
km/h
Gust
km/h
Spd
kts
Gust
kts
06/11:30pm 9.1 5.6 3.7 69 2.5 SSE 11 13 6 7 - - 0.0
06/11:00pm 9.0 5.2 4.0 71 2.3 S 13 19 7 10 - - 0.0
06/10:30pm 9.4 6.1 4.4 71 2.3 S 11 13 6 7 - - 0.0
06/10:00pm 9.7 6.0 4.5 70 2.4 S 13 20 7 11 - - 0.0
06/09:30pm 10.5 6.0 4.4 66 2.9 S 17 24 9 13 - - 0.0
06/09:00pm 11.2 6.9 5.1 66 2.9 S 17 24 9 13 - - 0.0
06/08:30pm 12.3 7.6 5.0 61 3.5 S 19 26 10 14 - - 0.0
06/08:00pm 14.3 10.3 4.9 53 4.6 SSW 15 22 8 12 - - 0.0
06/07:30pm 15.4 11.1 3.2 44 5.8 SW 15 20 8 11 - - 0.0
06/07:00pm 16.2 12.4 3.9 44 6.0 SW 13 22 7 12 - - 0.0
06/06:30pm 17.3 13.6 4.6 43 6.3 SW 13 28 7 15 - - 0.0
06/06:00pm 18.0 13.7 3.5 38 7.1 SW 15 30 8 16 - - 0.0
06/05:30pm 17.8 13.6 4.0 40 6.8 SW 15 24 8 13 - - 0.0
06/05:00pm 16.4 11.9 2.4 39 6.6 SW 15 24 8 13 - - 0.0
06/04:30pm 17.5 13.4 4.1 41 6.6 SW 15 26 8 14 - - 0.0
06/04:00pm 18.2 14.4 4.0 39 7.0 SW 13 26 7 14 - - 0.0
06/03:30pm 18.0 13.7 5.2 43 6.5 SW 17 30 9 16 - - 0.0
06/03:00pm 17.3 13.7 4.9 44 6.2 SW 13 24 7 13 - - 0.0
06/02:30pm 17.5 14.2 4.8 43 6.4 SW 11 22 6 12 - - 0.0
06/02:00pm 16.1 12.1 5.1 48 5.5 SSW 15 28 8 15 - - 0.0
06/01:30pm 14.8 10.7 4.5 50 5.0 SSW 15 24 8 13 - - 0.0
06/01:00pm 14.1 10.1 4.9 54 4.5 SSW 15 22 8 12 - - 0.0
06/12:30pm 14.2 10.7 5.3 55 4.4 SW 13 20 7 11 - - 0.0
06/12:00pm 13.5 9.9 5.2 57 4.1 SW 13 22 7 12 - - 0.0
06/11:30am 14.8 12.1 7.4 61 3.8 SW 11 20 6 11 - - 0.0
06/11:00am 11.7 8.9 5.1 64 3.2 SSW 9 15 5 8 - - 0.0
06/10:30am 11.6 9.2 6.9 73 2.4 SW 9 15 5 8 - - 0.0
06/10:00am 11.1 8.8 7.6 79 1.8 SW 9 15 5 8 - - 0.0
06/09:30am 10.2 7.4 5.2 71 2.4 S 9 17 5 9 - - 0.0
06/09:00am 9.5 5.7 5.7 77 1.8 SW 15 22 8 12 - - 0.0
06/08:30am 8.7 4.2 6.3 85 1.2 SW 19 26 10 14 - - 0.0
06/08:00am 8.6 4.9 6.2 85 1.2 SSW 15 20 8 11 - - 0.0
06/07:30am 8.7 5.5 6.7 87 1.0 SW 13 19 7 10 - - 0.0
06/07:00am 9.2 5.2 6.6 84 1.3 SW 17 24 9 13 - - 0.0
06/06:30am 9.4 5.1 7.2 86 1.1 SW 19 26 10 14 - - 0.0
06/06:00am 9.6 5.7 7.0 84 1.3 WSW 17 22 9 12 - - 0.0
06/05:30am 9.8 5.6 7.4 85 1.2 WSW 19 26 10 14 - - 0.0
06/05:00am 10.0 6.5 7.3 83 1.3 WSW 15 20 8 11 - - 0.0
06/04:30am 9.8 7.1 7.4 85 1.2 W 11 15 6 8 - - 0.0
06/04:00am 9.4 6.7 7.3 87 1.0 W 11 13 6 7 - - 0.0
06/03:30am 9.4 7.4 7.2 86 1.1 WNW 7 11 4 6 - - 0.0
06/03:00am 10.1 9.5 7.5 84 1.3 CALM 0 6 0 3 - - 0.0
06/02:30am 10.0 9.0 7.3 83 1.3 SW 2 7 1 4 - - 0.0
06/02:00am 9.8 7.8 7.1 83 1.3 S 7 11 4 6 - - 0.0
06/01:30am 9.8 7.4 7.2 84 1.3 SSW 9 13 5 7 - - 0.0
06/01:00am 10.3 8.6 7.4 82 1.5 WSW 6 9 3 5 - - 0.0
06/12:30am 10.1 7.8 7.3 83 1.4 SSE 9 13 5 7 - - 0.0
06/12:00am 10.5 9.1 7.4 81 1.6 E 4 9 2 5 - - 0.0
 
Date/Time
EDT
Temp
°C
App
Temp
°C
Dew
Point
°C
Rel
Hum
%
Delta-T
°C
Wind Press
QNH
hPa
Press
MSL
hPa
Rain since
9am
mm
Dir  Spd
km/h
Gust
km/h
Spd
kts
Gust
kts
05/11:30pm 11.0 9.0 6.9 76 2.0 E 7 11 4 6 - - 0.0
05/11:00pm 11.5 8.3 6.8 73 2.3 E 13 17 7 9 - - 0.0
05/10:30pm 11.1 7.6 7.0 76 2.1 ESE 15 22 8 12 - - 0.0
05/10:00pm 10.2 7.9 7.4 83 1.4 S 9 13 5 7 - - 0.0
05/09:30pm 10.2 7.2 7.8 85 1.2 S 13 20 7 11 - - 0.0
05/09:00pm 10.9 8.3 7.6 80 1.7 S 11 15 6 8 - - 0.0
05/08:30pm 11.4 7.0 7.5 77 2.0 SSW 20 28 11 15 - - 0.0
05/08:00pm 12.1 7.4 7.6 74 2.3 S 22 30 12 16 - - 0.0
05/07:30pm 12.8 8.0 7.5 70 2.7 S 22 32 12 17 - - 0.0
05/07:00pm 14.1 10.6 7.4 64 3.5 S 15 22 8 12 - - 0.0
05/06:30pm 15.5 12.7 7.0 57 4.4 SSW 11 22 6 12 - - 0.0
05/06:00pm 17.1 14.0 7.2 52 5.2 SW 13 24 7 13 - - 0.0
05/05:30pm 17.9 15.2 7.3 50 5.6 S 11 22 6 12 - - 0.0
05/05:00pm 16.8 13.4 5.7 48 5.6 SW 13 20 7 11 - - 0.0
05/04:30pm 16.6 12.9 6.1 50 5.4 SSW 15 22 8 12 - - 0.0
05/04:00pm 16.1 12.7 5.7 50 5.2 SSW 13 24 7 13 - - 0.0
05/03:30pm 16.4 13.1 6.2 51 5.2 SSW 13 22 7 12 - - 0.0
05/03:00pm 17.5 13.8 6.4 48 5.7 SW 15 32 8 17 - - 0.0
05/02:30pm 17.0 13.2 5.9 48 5.7 SSW 15 24 8 13 - - 0.0
05/02:00pm 17.0 13.0 6.8 51 5.3 SSW 17 32 9 17 - - 0.0
05/01:30pm 16.4 11.9 6.0 50 5.3 SSW 19 32 10 17 - - 0.0
05/01:00pm 15.9 11.7 5.8 51 5.1 SW 17 30 9 16 - - 0.0
05/12:30pm 15.0 10.1 7.1 59 4.1 SSW 22 35 12 19 - - 0.0
05/12:00pm 14.2 9.4 7.3 63 3.5 SSW 22 35 12 19 - - 0.0
05/11:30am 13.5 9.1 7.3 66 3.2 SSW 20 33 11 18 - - 0.0
05/11:00am 12.5 7.0 7.4 71 2.6 SSW 26 37 14 20 - - 0.0
05/10:30am 11.2 5.5 6.7 74 2.2 S 26 41 14 22 - - 0.0
05/10:00am 10.7 4.4 7.4 80 1.7 SSW 30 41 16 22 - - 0.0
05/09:30am 9.6 2.8 7.0 84 1.3 SSW 32 41 17 22 - - 0.0
05/09:00am 8.8 2.9 7.6 92 0.6 SSW 28 39 15 21 - - 3.4
05/08:30am 8.2 2.1 8.1 99 0.1 SSW 30 41 16 22 - - 3.4
05/08:00am 7.9 1.3 7.8 99 0.0 SSW 32 46 17 25 - - 3.4
05/07:30am 8.5 2.8 8.4 99 0.1 SSW 28 43 15 23 - - 3.4
05/07:00am 9.7 4.3 9.6 99 0.1 SSW 28 41 15 22 - - 3.4
05/06:30am 10.4 4.8 10.2 99 0.1 SSW 30 41 16 22 - - 3.4
05/06:00am 11.5 5.6 11.3 99 0.1 SSW 33 46 18 25 - - 3.4
05/05:30am 13.5 9.2 13.3 99 0.1 SW 28 39 15 21 - - 3.4
05/05:00am 14.9 12.6 14.7 99 0.1 W 20 32 11 17 - - 3.4
05/04:30am 14.8 14.2 14.6 99 0.1 W 11 20 6 11 - - 3.4
05/04:00am 14.8 14.6 14.6 99 0.1 NNW 9 19 5 10 - - 3.4
05/03:30am 15.0 14.4 14.7 98 0.2 NNW 11 26 6 14 - - 3.4
05/03:00am 15.5 14.9 14.5 94 0.6 N 11 22 6 12 - - 3.4
05/02:30am 16.5 13.9 13.8 84 1.6 NNW 20 39 11 21 - - 3.4
05/02:00am 17.5 14.1 13.8 79 2.2 NNW 24 43 13 23 - - 3.4
05/01:30am 17.0 14.5 14.1 83 1.7 N 20 41 11 22 - - 3.4
05/01:00am 17.9 14.5 13.6 76 2.5 N 24 41 13 22 - - 3.2
05/12:30am 17.6 14.2 13.7 78 2.3 N 24 39 13 21 - - 3.2
05/12:00am 17.3 14.3 13.6 79 2.2 N 22 39 12 21 - - 3.2
 
Date/Time
EDT
Temp
°C
App
Temp
°C
Dew
Point
°C
Rel
Hum
%
Delta-T
°C
Wind Press
QNH
hPa
Press
MSL
hPa
Rain since
9am
mm
Dir  Spd
km/h
Gust
km/h
Spd
kts
Gust
kts
04/11:30pm 17.3 14.6 13.6 79 2.2 N 20 41 11 22 - - 3.2
04/11:00pm 18.0 13.9 13.7 76 2.5 N 28 48 15 26 - - 3.2
04/10:42pm 17.7 13.5 13.6 77 2.4 N 28 46 15 25 - - 3.2
04/10:30pm 17.7 13.5 13.6 77 2.4 N 28 44 15 24 - - 3.2
04/10:16pm 17.5 13.4 13.8 79 2.2 N 28 48 15 26 - - 3.2
04/10:00pm 17.2 13.4 13.7 80 2.1 N 26 41 14 22 - - 3.2

Other Formats:

Comma delimited format used in spreadsheet applications
http://www.bom.gov.au/fwo/IDV60801/IDV60801.94835.axf

JavaScript Object Notation format (JSON) in row-major order
http://www.bom.gov.au/fwo/IDV60801/IDV60801.94835.json